Time;durP1;ratioP1;P1;durP2;ratioP2;P2;SDS_P1;SDS_P2;PMS_P1;PMS_P2;Temp;Humidity;BMP_temperature;BMP_pressure;BME280_temperature;BME280_humidity;BME280_pressure;Samples;Min_cycle;Max_cycle;Signal;HPM_P1;HPM_P2
2023/07/06 00:00:59;;;;;;;7.13;6.50;;;19.50;14.00;;;;;;4991702;28;20444;-56
2023/07/06 00:03:25;;;;;;;5.70;5.43;;;19.50;13.70;;;;;;4991879;28;21001;-57
2023/07/06 00:05:51;;;;;;;6.00;5.70;;;19.50;13.60;;;;;;4991552;28;20504;-57
2023/07/06 00:08:17;;;;;;;6.00;5.70;;;19.50;13.60;;;;;;4991569;28;20182;-57
2023/07/06 00:10:44;;;;;;;6.50;6.10;;;19.50;13.80;;;;;;4991379;28;20959;-57
2023/07/06 00:13:11;;;;;;;6.20;5.93;;;19.40;13.60;;;;;;4991802;28;20178;-57
2023/07/06 00:15:37;;;;;;;6.13;5.80;;;19.50;13.90;;;;;;4990989;28;20552;-57
2023/07/06 00:18:04;;;;;;;6.20;5.90;;;19.60;13.60;;;;;;4991281;28;20505;-57
2023/07/06 00:20:32;;;;;;;6.83;6.43;;;19.60;13.50;;;;;;4991375;28;20475;-57
2023/07/06 00:22:58;;;;;;;6.10;5.70;;;19.50;13.40;;;;;;4991555;28;20512;-58
2023/07/06 00:25:25;;;;;;;5.57;5.27;;;19.60;13.30;;;;;;4991329;28;20991;-57
2023/07/06 00:27:53;;;;;;;6.50;6.10;;;19.60;13.20;;;;;;4991308;28;20559;-57
2023/07/06 00:30:30;;;;;;;5.87;5.57;;;19.60;13.40;;;;;;4991401;28;20504;-57
2023/07/06 00:32:58;;;;;;;6.30;5.87;;;19.60;13.40;;;;;;4991438;28;20467;-57
2023/07/06 00:35:24;;;;;;;6.63;6.23;;;19.60;13.50;;;;;;4991184;28;20409;-57
2023/07/06 00:37:51;;;;;;;6.60;6.20;;;19.60;13.50;;;;;;5003223;28;20817;-57
2023/07/06 00:40:17;;;;;;;7.07;6.63;;;19.60;13.50;;;;;;4971854;28;20266;-57
2023/07/06 00:42:43;;;;;;;6.60;6.30;;;19.60;13.60;;;;;;4973065;28;20421;-56
2023/07/06 00:45:09;;;;;;;6.60;6.30;;;19.50;13.50;;;;;;4971572;28;20418;-57
2023/07/06 00:48:02;;;;;;;7.00;6.67;;;19.50;13.80;;;;;;4971880;28;20174;-57
2023/07/06 00:50:30;;;;;;;6.30;6.00;;;19.40;14.60;;;;;;4970188;28;20472;-57
2023/07/06 00:53:06;;;;;;;7.20;6.80;;;19.40;14.20;;;;;;4971917;28;20830;-57
2023/07/06 00:55:36;;;;;;;6.40;6.10;;;19.30;14.10;;;;;;4971824;28;20847;-57
2023/07/06 00:58:15;;;;;;;6.33;6.03;;;19.30;14.10;;;;;;4971559;28;20425;-55
2023/07/06 01:00:44;;;;;;;6.30;5.90;;;19.30;14.20;;;;;;4971765;28;20521;-58
2023/07/06 01:03:10;;;;;;;6.50;6.20;;;19.30;14.30;;;;;;4971822;28;20947;-58
2023/07/06 01:05:38;;;;;;;7.17;6.67;;;19.40;14.60;;;;;;4971532;28;20414;-58
2023/07/06 01:08:11;;;;;;;6.07;5.67;;;19.40;14.20;;;;;;4971334;28;20785;-57
2023/07/06 01:10:39;;;;;;;6.33;5.87;;;19.60;14.00;;;;;;4971526;28;20423;-58
2023/07/06 01:13:07;;;;;;;6.90;6.50;;;19.70;13.60;;;;;;4971711;28;20838;-56
2023/07/06 01:15:48;;;;;;;6.90;6.50;;;19.80;13.50;;;;;;4971340;28;20519;-56
2023/07/06 01:18:38;;;;;;;7.20;6.70;;;19.80;13.30;;;;;;4971327;28;20512;-57
2023/07/06 01:21:31;;;;;;;6.43;6.13;;;19.70;13.70;;;;;;4971593;28;20418;-57
2023/07/06 01:24:21;;;;;;;7.07;6.57;;;19.50;14.00;;;;;;4971542;28;20429;-57
2023/07/06 01:26:57;;;;;;;6.40;6.10;;;19.40;14.00;;;;;;4972079;28;20885;-57
2023/07/06 01:29:46;;;;;;;6.33;5.93;;;19.40;14.10;;;;;;4975007;28;20433;-56
2023/07/06 01:32:18;;;;;;;6.60;6.10;;;19.30;14.30;;;;;;4975255;28;20794;-56
2023/07/06 01:34:57;;;;;;;6.23;6.00;;;19.40;14.20;;;;;;4974944;28;20416;-58
2023/07/06 01:37:41;;;;;;;7.10;6.60;;;19.50;14.20;;;;;;4974991;28;20480;-57
2023/07/06 01:40:09;;;;;;;6.83;6.53;;;19.60;14.10;;;;;;4974791;28;20485;-57
2023/07/06 01:42:40;;;;;;;6.83;6.50;;;19.70;14.10;;;;;;4974959;28;20492;-56
2023/07/06 01:45:23;;;;;;;6.87;6.43;;;19.70;13.70;;;;;;4974974;28;20421;-57
2023/07/06 01:47:50;;;;;;;6.50;6.20;;;19.70;13.60;;;;;;4974755;28;20792;-57
2023/07/06 01:50:19;;;;;;;7.07;6.70;;;19.60;13.90;;;;;;4974290;28;20438;-58
2023/07/06 01:52:53;;;;;;;6.80;6.40;;;19.60;14.00;;;;;;4974390;28;20766;-57
2023/07/06 01:56:00;;;;;;;6.30;6.00;;;19.60;14.20;;;;;;4974588;28;20485;-56
2023/07/06 01:58:38;;;;;;;6.67;6.23;;;19.60;14.00;;;;;;4964401;28;20462;-57
2023/07/06 02:01:09;;;;;;;6.47;6.17;;;19.60;14.30;;;;;;4974752;28;20517;-57
2023/07/06 02:03:38;;;;;;;7.13;6.67;;;19.60;14.20;;;;;;4974708;28;20418;-57
2023/07/06 02:06:10;;;;;;;6.60;6.30;;;19.60;14.10;;;;;;4974582;28;20521;-57
2023/07/06 02:08:41;;;;;;;7.23;6.53;;;19.70;14.20;;;;;;4974034;28;20426;-57
2023/07/06 02:11:08;;;;;;;7.70;7.20;;;19.60;14.10;;;;;;4974561;28;20942;-57
2023/07/06 02:13:34;;;;;;;6.47;6.07;;;19.50;14.60;;;;;;4974408;28;20513;-56
2023/07/06 02:16:00;;;;;;;7.37;6.77;;;19.50;14.90;;;;;;4973907;28;20989;-57
2023/07/06 02:18:27;;;;;;;6.50;6.20;;;19.50;14.50;;;;;;4974060;28;20950;-56
2023/07/06 02:20:57;;;;;;;6.50;6.20;;;19.50;14.50;;;;;;4975369;28;20417;-57
2023/07/06 02:23:23;;;;;;;6.80;6.40;;;19.60;14.40;;;;;;4973843;28;20441;-57
2023/07/06 02:25:49;;;;;;;6.63;6.30;;;19.60;14.60;;;;;;4974074;28;20426;-57
2023/07/06 02:28:15;;;;;;;6.03;5.83;;;19.60;14.80;;;;;;4974193;28;20424;-57
2023/07/06 02:30:40;;;;;;;7.07;6.57;;;19.60;14.80;;;;;;4973905;28;20201;-57
2023/07/06 02:33:06;;;;;;;7.30;6.83;;;19.50;14.80;;;;;;4974203;28;20179;-58
2023/07/06 02:35:32;;;;;;;7.50;7.07;;;19.60;14.70;;;;;;4975309;28;20178;-57
2023/07/06 02:37:58;;;;;;;7.23;6.87;;;19.60;14.90;;;;;;4973274;28;20179;-56
2023/07/06 02:40:24;;;;;;;6.77;6.47;;;19.60;14.60;;;;;;4973853;28;20418;-57
2023/07/06 02:42:49;;;;;;;7.60;7.00;;;19.60;14.60;;;;;;4973590;28;20187;-57
2023/07/06 02:45:15;;;;;;;7.37;6.97;;;19.60;14.50;;;;;;4973452;28;20183;-57
2023/07/06 02:47:41;;;;;;;6.97;6.67;;;19.50;14.40;;;;;;4973357;28;20218;-57
2023/07/06 02:50:10;;;;;;;6.83;6.43;;;19.60;14.60;;;;;;4973570;28;20539;-58
2023/07/06 02:52:42;;;;;;;7.40;7.00;;;19.40;14.30;;;;;;4973637;28;20422;-57
2023/07/06 02:55:11;;;;;;;7.30;6.90;;;19.30;14.60;;;;;;4973818;28;20525;-56
2023/07/06 02:57:39;;;;;;;6.90;6.40;;;19.10;15.00;;;;;;4973466;28;20489;-57
2023/07/06 03:00:10;;;;;;;6.60;6.20;;;19.10;15.50;;;;;;4973207;28;20469;-56
2023/07/06 03:02:36;;;;;;;6.80;6.40;;;19.10;15.40;;;;;;4973215;28;20418;-57
2023/07/06 03:05:04;;;;;;;7.23;6.83;;;19.20;15.20;;;;;;4973560;28;20430;-57
2023/07/06 03:07:30;;;;;;;6.93;6.63;;;19.20;15.00;;;;;;4973302;28;20175;-57
2023/07/06 03:09:57;;;;;;;7.00;6.60;;;19.10;15.10;;;;;;4973097;28;20489;-57
2023/07/06 03:12:23;;;;;;;6.70;6.30;;;19.10;15.90;;;;;;4973048;28;20182;-57
2023/07/06 03:14:49;;;;;;;7.73;7.33;;;19.00;15.60;;;;;;4973161;28;20429;-57
2023/07/06 03:17:15;;;;;;;7.00;6.70;;;19.00;15.60;;;;;;4973280;28;20919;-57
2023/07/06 03:19:41;;;;;;;7.80;7.30;;;19.00;15.80;;;;;;4972675;28;20218;-57
2023/07/06 03:22:07;;;;;;;7.17;6.80;;;19.00;15.90;;;;;;4957249;28;20246;-57
2023/07/06 03:24:33;;;;;;;8.33;7.80;;;19.10;15.90;;;;;;4972988;28;20526;-57
2023/07/06 03:27:01;;;;;;;7.40;7.00;;;18.90;16.00;;;;;;4972969;28;20418;-57
2023/07/06 03:29:27;;;;;;;8.17;7.67;;;18.80;16.60;;;;;;4972665;28;20183;-57
2023/07/06 03:31:53;;;;;;;8.13;7.67;;;18.80;16.50;;;;;;4972435;28;20777;-58
2023/07/06 03:34:20;;;;;;;7.97;7.40;;;18.80;16.30;;;;;;4972586;28;20532;-57
2023/07/06 03:36:45;;;;;;;7.90;7.53;;;18.70;16.50;;;;;;4988871;28;20414;-58
2023/07/06 03:39:12;;;;;;;8.30;7.77;;;18.60;17.00;;;;;;4972499;28;20476;-57
2023/07/06 03:41:38;;;;;;;9.10;8.60;;;18.70;17.00;;;;;;4972388;28;20270;-57
2023/07/06 03:44:05;;;;;;;8.60;8.20;;;18.80;16.50;;;;;;4971572;28;20911;-57
2023/07/06 03:46:34;;;;;;;8.30;7.87;;;18.90;16.40;;;;;;4976465;28;20425;-57
2023/07/06 03:49:04;;;;;;;7.60;7.23;;;19.00;16.40;;;;;;5010985;28;20449;-57
2023/07/06 03:51:31;;;;;;;7.60;7.20;;;19.00;16.20;;;;;;5008721;28;20835;-60
2023/07/06 03:53:57;;;;;;;7.80;7.50;;;19.10;16.50;;;;;;5001618;28;20408;-60
2023/07/06 03:56:27;;;;;;;7.90;7.57;;;19.10;16.40;;;;;;5005868;28;20429;-60
2023/07/06 03:58:57;;;;;;;7.80;7.30;;;19.10;16.40;;;;;;5014155;28;20856;-60
2023/07/06 04:01:27;;;;;;;8.90;8.30;;;19.20;16.50;;;;;;5013429;28;20457;-60
2023/07/06 04:03:53;;;;;;;7.90;7.50;;;19.20;16.70;;;;;;5005179;28;20418;-60
2023/07/06 04:06:19;;;;;;;7.83;7.43;;;19.20;16.70;;;;;;5016414;28;20433;-58
2023/07/06 04:08:45;;;;;;;8.10;7.70;;;19.20;16.90;;;;;;5015790;28;20520;-57
2023/07/06 04:11:10;;;;;;;8.97;8.43;;;19.10;17.10;;;;;;4997174;28;20515;-56
2023/07/06 04:13:36;;;;;;;8.93;8.30;;;19.20;17.40;;;;;;4991969;28;20182;-58
2023/07/06 04:16:02;;;;;;;8.57;8.07;;;19.10;17.70;;;;;;5015714;28;20185;-59
2023/07/06 04:18:27;;;;;;;8.87;8.37;;;19.10;17.70;;;;;;5004397;28;20209;-59
2023/07/06 04:20:54;;;;;;;9.67;9.07;;;19.10;17.90;;;;;;5007307;28;20430;-60
2023/07/06 04:23:19;;;;;;;9.77;9.27;;;19.00;18.30;;;;;;4991373;28;20481;-60
2023/07/06 04:25:45;;;;;;;9.30;8.60;;;18.90;18.60;;;;;;5014452;28;20425;-62
2023/07/06 04:28:13;;;;;;;8.53;8.10;;;18.80;18.50;;;;;;4999664;28;20188;-60
2023/07/06 04:30:42;;;;;;;8.50;7.83;;;18.90;18.60;;;;;;5011003;28;20201;-61
2023/07/06 04:33:14;;;;;;;7.80;7.30;;;18.90;18.70;;;;;;5008507;28;21253;-61
2023/07/06 04:35:41;;;;;;;9.07;8.40;;;18.90;19.10;;;;;;4988745;28;20429;-54
2023/07/06 04:38:08;;;;;;;8.57;8.07;;;18.60;19.20;;;;;;4989419;28;20421;-52
2023/07/06 04:40:34;;;;;;;8.67;8.03;;;18.60;19.50;;;;;;4990182;28;20551;-55
2023/07/06 04:42:59;;;;;;;8.13;7.73;;;18.60;19.60;;;;;;4990396;28;20509;-55
2023/07/06 04:45:26;;;;;;;9.83;9.13;;;18.70;19.40;;;;;;4991543;28;20937;-55
2023/07/06 04:47:53;;;;;;;8.27;7.77;;;18.80;19.30;;;;;;4989841;28;20174;-52
2023/07/06 04:50:23;;;;;;;9.43;8.90;;;18.90;19.20;;;;;;4989392;28;20445;-54
2023/07/06 04:52:55;;;;;;;9.53;8.83;;;18.90;19.30;;;;;;4989820;28;20433;-55
2023/07/06 04:55:24;;;;;;;8.07;7.60;;;19.00;18.80;;;;;;4991372;28;20504;-55
2023/07/06 04:57:58;;;;;;;8.97;8.47;;;19.00;18.40;;;;;;4990468;28;20890;-54
2023/07/06 05:00:30;;;;;;;8.97;8.37;;;18.90;18.30;;;;;;5006160;28;20432;-54
2023/07/06 05:02:58;;;;;;;9.33;8.83;;;19.00;18.20;;;;;;4993559;28;20780;-55
2023/07/06 05:05:32;;;;;;;9.40;8.90;;;19.00;18.30;;;;;;5010069;28;20428;-55
2023/07/06 05:07:58;;;;;;;8.40;7.90;;;19.00;18.20;;;;;;5010011;28;20432;-55
2023/07/06 05:10:25;;;;;;;8.70;8.20;;;18.80;18.20;;;;;;5010370;28;20421;-54
2023/07/06 05:12:52;;;;;;;8.63;7.90;;;18.60;18.90;;;;;;5010126;28;20190;-56
2023/07/06 05:15:18;;;;;;;9.40;8.80;;;18.70;19.30;;;;;;5011950;28;20413;-55
2023/07/06 05:17:43;;;;;;;8.37;7.90;;;18.80;19.00;;;;;;4993317;28;20421;-55
2023/07/06 05:20:14;;;;;;;9.13;8.63;;;18.80;18.80;;;;;;4997326;28;20463;-56
2023/07/06 05:22:42;;;;;;;8.20;7.63;;;18.90;18.80;;;;;;4995744;28;20229;-53
2023/07/06 05:25:09;;;;;;;8.60;8.10;;;18.80;17.50;;;;;;5012613;28;20504;-53
2023/07/06 05:27:35;;;;;;;8.37;7.97;;;18.70;17.40;;;;;;5009989;28;20416;-55
2023/07/06 05:30:01;;;;;;;8.60;8.10;;;18.70;17.70;;;;;;4989988;28;20428;-56
2023/07/06 05:32:27;;;;;;;7.53;7.17;;;18.80;17.90;;;;;;4973856;28;20418;-55
2023/07/06 05:34:53;;;;;;;7.83;7.43;;;18.90;17.60;;;;;;4973706;28;20417;-56
2023/07/06 05:37:19;;;;;;;8.57;8.17;;;19.00;17.50;;;;;;4991630;28;20186;-56
2023/07/06 05:39:44;;;;;;;8.20;7.70;;;19.10;17.30;;;;;;4992602;28;20456;-53
2023/07/06 05:42:11;;;;;;;8.90;8.10;;;19.10;17.40;;;;;;5009536;28;20205;-56
2023/07/06 05:44:37;;;;;;;8.00;7.50;;;19.20;17.10;;;;;;4992378;28;20178;-55
2023/07/06 05:47:02;;;;;;;9.17;8.50;;;19.30;17.20;;;;;;5009224;28;20421;-55
2023/07/06 05:49:28;;;;;;;8.90;8.40;;;19.30;16.90;;;;;;4992620;28;20288;-53
2023/07/06 05:51:54;;;;;;;8.60;8.10;;;19.30;16.90;;;;;;5009162;28;20668;-55
2023/07/06 05:54:20;;;;;;;8.50;8.00;;;19.40;17.00;;;;;;5005999;28;20677;-56
2023/07/06 05:56:46;;;;;;;9.07;8.57;;;19.40;17.00;;;;;;4973513;28;20421;-56
2023/07/06 05:59:12;;;;;;;9.13;8.53;;;19.40;16.40;;;;;;4973430;28;20686;-57
2023/07/06 06:01:37;;;;;;;8.83;8.33;;;19.30;17.60;;;;;;4973979;28;20434;-56
2023/07/06 06:04:03;;;;;;;8.43;7.90;;;19.30;18.00;;;;;;4998340;28;20273;-56
2023/07/06 06:06:54;;;;;;;9.43;8.83;;;19.30;18.10;;;;;;4994274;28;20174;-55
2023/07/06 06:09:21;;;;;;;11.03;9.47;;;19.20;18.80;;;;;;4992749;28;20178;-56
2023/07/06 06:11:50;;;;;;;10.40;9.70;;;19.10;19.40;;;;;;4992171;28;20432;-55
2023/07/06 06:14:17;;;;;;;9.03;8.53;;;19.10;19.30;;;;;;4991274;28;20797;-55
2023/07/06 06:16:43;;;;;;;9.40;8.87;;;19.20;19.10;;;;;;4997223;28;20448;-56
2023/07/06 06:19:09;;;;;;;9.50;8.90;;;19.30;18.90;;;;;;4994914;28;20465;-56
2023/07/06 06:21:35;;;;;;;10.23;9.43;;;19.30;18.10;;;;;;4998159;28;20425;-55
2023/07/06 06:24:02;;;;;;;10.87;9.77;;;19.30;18.50;;;;;;4999025;28;20413;-56
2023/07/06 06:26:29;;;;;;;9.83;9.33;;;19.20;18.50;;;;;;4992627;28;20177;-55
2023/07/06 06:28:57;;;;;;;10.63;9.90;;;19.30;18.90;;;;;;4993366;28;20454;-55
2023/07/06 06:31:24;;;;;;;10.53;9.73;;;19.30;19.00;;;;;;4991810;28;20413;-55
2023/07/06 06:33:50;;;;;;;9.87;9.07;;;19.30;18.60;;;;;;4991375;28;20794;-56
2023/07/06 06:36:17;;;;;;;9.20;8.60;;;19.40;18.60;;;;;;4992071;28;20859;-56
2023/07/06 06:38:43;;;;;;;10.50;9.90;;;19.40;17.90;;;;;;4991890;28;20459;-56
2023/07/06 06:41:10;;;;;;;10.07;9.07;;;19.50;17.50;;;;;;4992405;28;20421;-54
2023/07/06 06:43:38;;;;;;;10.60;9.83;;;19.60;18.20;;;;;;4990734;28;20433;-56
2023/07/06 06:46:05;;;;;;;9.00;8.40;;;19.60;17.60;;;;;;4992428;28;20417;-56
2023/07/06 06:48:32;;;;;;;20.87;12.40;;;19.60;17.70;;;;;;4991520;28;20455;-56
2023/07/06 06:50:58;;;;;;;9.87;9.20;;;19.70;17.60;;;;;;4993044;28;20413;-56
2023/07/06 06:53:24;;;;;;;10.23;9.53;;;19.70;17.20;;;;;;4993191;28;20578;-56
2023/07/06 06:55:50;;;;;;;9.80;9.17;;;19.80;17.20;;;;;;4992726;28;20417;-56
2023/07/06 06:58:16;;;;;;;10.13;9.23;;;19.90;17.20;;;;;;4992836;28;20186;-55
2023/07/06 07:00:44;;;;;;;9.50;9.00;;;19.90;15.80;;;;;;4992667;28;20984;-56
2023/07/06 07:03:11;;;;;;;7.77;7.37;;;20.00;15.80;;;;;;4992567;28;20643;-55
2023/07/06 07:05:37;;;;;;;8.33;7.77;;;20.10;15.60;;;;;;5014562;28;20429;-52
2023/07/06 07:08:03;;;;;;;9.00;8.30;;;20.10;15.30;;;;;;5011849;28;20421;-52
2023/07/06 07:10:29;;;;;;;8.70;8.30;;;20.10;15.60;;;;;;4990750;28;20909;-52
2023/07/06 07:12:55;;;;;;;9.33;8.60;;;20.20;15.50;;;;;;4991966;28;20170;-51
2023/07/06 07:15:21;;;;;;;7.83;7.33;;;20.20;15.10;;;;;;4990627;28;20265;-50
2023/07/06 07:17:46;;;;;;;8.87;8.37;;;20.30;15.70;;;;;;4990387;28;20433;-53
2023/07/06 07:20:14;;;;;;;8.47;7.73;;;20.30;15.40;;;;;;4990365;28;20472;-50
2023/07/06 07:22:40;;;;;;;9.30;8.60;;;20.30;15.50;;;;;;5006965;28;20210;-51
2023/07/06 07:25:07;;;;;;;8.60;7.97;;;20.40;15.10;;;;;;4990642;28;20515;-51
2023/07/06 07:27:35;;;;;;;9.67;8.73;;;20.50;14.70;;;;;;4990716;28;20785;-52
2023/07/06 07:30:06;;;;;;;10.47;9.50;;;20.50;14.30;;;;;;4992132;28;20432;-52
2023/07/06 07:32:32;;;;;;;10.10;9.40;;;20.50;14.40;;;;;;4992255;28;20511;-53
2023/07/06 07:34:58;;;;;;;8.77;8.30;;;20.60;13.80;;;;;;4992159;28;20453;-52
2023/07/06 07:37:25;;;;;;;9.17;8.57;;;20.70;13.50;;;;;;4992348;28;20417;-51
2023/07/06 07:39:51;;;;;;;9.37;8.70;;;20.80;13.60;;;;;;4991789;28;20833;-52
2023/07/06 07:42:18;;;;;;;8.83;8.13;;;20.80;13.60;;;;;;4992175;28;20415;-52
2023/07/06 07:44:47;;;;;;;8.53;7.67;;;20.90;13.70;;;;;;4991952;28;20174;-53
2023/07/06 07:47:18;;;;;;;8.77;8.40;;;21.00;12.50;;;;;;4992058;28;20760;-51
2023/07/06 07:49:47;;;;;;;9.47;8.60;;;20.90;12.60;;;;;;4991705;28;20989;-53
2023/07/06 07:52:14;;;;;;;8.60;8.20;;;21.00;12.20;;;;;;4992009;28;20421;-54
2023/07/06 07:54:40;;;;;;;8.20;7.53;;;20.90;12.00;;;;;;4991814;28;20425;-51
2023/07/06 07:57:07;;;;;;;9.00;8.50;;;21.00;12.60;;;;;;4991765;28;20549;-54
2023/07/06 07:59:33;;;;;;;7.87;7.47;;;21.00;12.40;;;;;;4991385;28;20465;-50
2023/07/06 08:01:59;;;;;;;8.57;8.17;;;21.00;12.40;;;;;;4991666;28;20444;-54
2023/07/06 08:04:24;;;;;;;8.97;8.37;;;21.10;12.40;;;;;;4991810;28;20926;-50
2023/07/06 08:06:50;;;;;;;8.43;8.03;;;21.10;13.10;;;;;;4991593;28;20425;-52
2023/07/06 08:09:17;;;;;;;8.70;8.20;;;21.10;12.40;;;;;;4991458;28;20182;-54
2023/07/06 08:11:46;;;;;;;9.17;8.33;;;21.10;11.80;;;;;;4991613;28;20184;-51
2023/07/06 08:14:12;;;;;;;9.27;8.70;;;21.20;12.00;;;;;;4991669;28;20413;-52
2023/07/06 08:16:40;;;;;;;9.40;8.90;;;21.20;12.20;;;;;;4991508;28;20495;-53
2023/07/06 08:19:09;;;;;;;9.67;9.10;;;21.30;11.90;;;;;;4991292;28;20832;-51
2023/07/06 08:21:35;;;;;;;8.57;8.20;;;21.30;11.90;;;;;;4991554;28;20548;-53
2023/07/06 08:24:01;;;;;;;8.90;8.50;;;21.30;11.70;;;;;;4991546;28;20512;-51
2023/07/06 08:26:31;;;;;;;9.50;9.00;;;21.30;11.80;;;;;;4991433;28;20231;-52
2023/07/06 08:28:57;;;;;;;8.90;8.50;;;21.30;11.60;;;;;;4991106;28;21243;-52
2023/07/06 08:31:24;;;;;;;10.87;10.07;;;21.30;11.40;;;;;;4991360;28;20535;-50
2023/07/06 08:33:50;;;;;;;9.73;8.93;;;21.40;11.90;;;;;;4998451;28;21005;-50
2023/07/06 08:36:20;;;;;;;9.77;8.80;;;21.60;11.60;;;;;;4990649;28;20817;-49
2023/07/06 08:38:46;;;;;;;10.93;10.10;;;21.60;11.40;;;;;;4990701;28;20464;-52
2023/07/06 08:41:19;;;;;;;11.30;10.50;;;21.60;11.20;;;;;;4991423;28;20412;-52
2023/07/06 08:43:46;;;;;;;9.20;8.70;;;21.70;10.70;;;;;;4991074;28;20416;-53
2023/07/06 08:46:12;;;;;;;8.90;8.23;;;21.70;10.70;;;;;;4991043;28;20414;-50
2023/07/06 08:48:39;;;;;;;9.03;8.30;;;21.60;10.70;;;;;;4990816;28;20504;-50
2023/07/06 08:51:22;;;;;;;9.07;8.47;;;21.70;10.60;;;;;;4992351;28;20508;-50
2023/07/06 08:54:00;;;;;;;8.07;7.60;;;21.60;10.70;;;;;;4991106;28;20413;-50
2023/07/06 08:56:28;;;;;;;8.17;7.63;;;21.60;10.00;;;;;;4991123;28;20821;-50
2023/07/06 08:58:56;;;;;;;8.80;8.30;;;21.60;9.90;;;;;;4990754;28;20465;-53
2023/07/06 09:01:24;;;;;;;7.90;7.40;;;21.80;9.70;;;;;;4990994;28;20445;-54
2023/07/06 09:03:57;;;;;;;8.70;8.10;;;21.70;9.40;;;;;;4990970;28;20426;-53
2023/07/06 09:06:28;;;;;;;8.63;8.00;;;21.80;9.90;;;;;;4990984;28;20417;-57
2023/07/06 09:09:02;;;;;;;8.33;7.90;;;21.90;9.60;;;;;;4990819;28;20648;-57
2023/07/06 09:11:33;;;;;;;8.40;8.00;;;22.00;9.30;;;;;;4990923;28;20419;-58
2023/07/06 09:14:05;;;;;;;8.70;8.17;;;22.10;8.90;;;;;;4991082;28;20512;-58
2023/07/06 09:16:35;;;;;;;9.03;8.53;;;22.10;8.90;;;;;;4991066;28;20416;-58
2023/07/06 09:19:08;;;;;;;9.10;8.50;;;22.20;9.00;;;;;;4990667;28;20910;-65
2023/07/06 09:21:34;;;;;;;9.17;8.47;;;22.20;9.00;;;;;;4990803;28;20468;-58
2023/07/06 09:24:00;;;;;;;8.40;7.80;;;22.30;8.10;;;;;;4992406;28;20813;-60
2023/07/06 09:26:36;;;;;;;7.90;7.60;;;22.30;8.70;;;;;;4990921;28;20421;-58
2023/07/06 09:29:20;;;;;;;8.53;7.93;;;22.40;8.30;;;;;;4990663;28;20424;-57
2023/07/06 09:31:49;;;;;;;7.53;7.03;;;22.60;8.20;;;;;;4992434;28;20439;-58
2023/07/06 09:34:26;;;;;;;7.97;7.57;;;22.60;8.00;;;;;;4990336;28;20413;-59
2023/07/06 09:36:51;;;;;;;7.90;7.50;;;22.80;7.40;;;;;;4992149;28;20409;-58
2023/07/06 09:39:17;;;;;;;8.50;8.00;;;22.90;7.00;;;;;;4990593;28;20468;-59
2023/07/06 09:41:44;;;;;;;7.90;7.30;;;23.00;6.60;;;;;;4990626;28;20185;-58
2023/07/06 09:44:15;;;;;;;7.30;7.00;;;23.10;6.90;;;;;;4990807;28;20658;-58
2023/07/06 09:46:43;;;;;;;7.40;7.07;;;23.00;6.70;;;;;;4990650;28;20416;-58
2023/07/06 09:49:19;;;;;;;10.00;8.27;;;22.90;6.20;;;;;;4993094;28;20811;-58
2023/07/06 09:52:02;;;;;;;7.83;7.53;;;22.80;6.60;;;;;;4994015;28;20440;-58
2023/07/06 09:54:42;;;;;;;7.93;7.37;;;22.70;6.90;;;;;;4994111;28;20831;-57
2023/07/06 09:57:15;;;;;;;8.10;7.60;;;22.60;7.40;;;;;;4994079;28;20421;-58
2023/07/06 09:59:46;;;;;;;8.13;7.60;;;22.60;7.50;;;;;;4993813;28;20899;-58
2023/07/06 10:02:33;;;;;;;7.70;7.40;;;22.70;6.80;;;;;;4994055;28;20453;-58
2023/07/06 10:05:16;;;;;;;9.10;8.40;;;23.00;7.00;;;;;;4993917;28;20417;-58
2023/07/06 10:08:06;;;;;;;7.40;7.10;;;23.20;6.40;;;;;;4993854;28;20471;-58
2023/07/06 10:10:54;;;;;;;7.60;7.30;;;23.30;6.40;;;;;;4993793;28;20937;-59
2023/07/06 10:13:47;;;;;;;7.27;6.87;;;23.50;5.90;;;;;;4993978;28;20413;-59
2023/07/06 10:16:38;;;;;;;7.13;6.83;;;23.60;5.50;;;;;;4993737;28;20452;-59
2023/07/06 10:19:22;;;;;;;7.30;6.90;;;24.00;5.10;;;;;;4993663;28;20801;-59
2023/07/06 10:22:03;;;;;;;7.60;7.13;;;24.30;4.60;;;;;;4993599;28;20409;-59
2023/07/06 10:24:47;;;;;;;7.90;7.50;;;24.20;3.10;;;;;;4993690;28;20921;-59
2023/07/06 10:27:38;;;;;;;7.60;7.17;;;24.30;3.30;;;;;;4993684;28;20409;-59
2023/07/06 10:30:09;;;;;;;7.00;6.60;;;24.40;3.10;;;;;;4993553;28;20429;-59
2023/07/06 10:32:42;;;;;;;7.87;7.27;;;24.70;3.40;;;;;;4993564;28;20413;-59
2023/07/06 10:35:36;;;;;;;7.87;7.43;;;24.70;2.90;;;;;;4993465;28;20417;-59
2023/07/06 10:38:02;;;;;;;7.33;6.80;;;24.50;3.40;;;;;;4992451;28;20425;-59
2023/07/06 10:40:29;;;;;;;6.50;6.20;;;24.40;3.60;;;;;;4993154;28;20471;-59
2023/07/06 10:43:13;;;;;;;8.57;7.97;;;24.20;3.80;;;;;;4993351;28;20528;-59
2023/07/06 10:45:46;;;;;;;7.90;7.50;;;24.10;4.30;;;;;;4993195;28;20433;-59
2023/07/06 10:48:25;;;;;;;7.80;7.10;;;23.90;4.90;;;;;;4993238;28;20918;-58
2023/07/06 10:51:20;;;;;;;9.10;7.00;;;23.80;5.20;;;;;;4993072;28;20525;-58
2023/07/06 10:54:17;;;;;;;8.10;7.60;;;23.70;5.00;;;;;;4990470;28;20417;-58
2023/07/06 10:56:47;;;;;;;7.50;7.17;;;23.60;5.10;;;;;;4987634;28;20417;-58
2023/07/06 10:59:24;;;;;;;7.80;7.40;;;23.50;5.60;;;;;;4992592;28;20558;-59
2023/07/06 11:02:11;;;;;;;7.50;7.10;;;23.60;5.70;;;;;;4992912;28;20409;-58
2023/07/06 11:04:41;;;;;;;7.90;7.50;;;23.50;5.60;;;;;;4992875;28;20409;-59
2023/07/06 11:07:38;;;;;;;7.80;7.30;;;23.60;5.40;;;;;;4993016;28;20432;-59
2023/07/06 11:10:19;;;;;;;7.57;7.07;;;23.70;4.80;;;;;;4992044;28;20430;-58
2023/07/06 11:12:57;;;;;;;8.83;8.00;;;23.70;4.50;;;;;;4992566;28;20942;-59
2023/07/06 11:15:46;;;;;;;7.80;7.40;;;23.90;4.80;;;;;;4992667;28;20413;-59
2023/07/06 11:18:24;;;;;;;7.40;6.90;;;23.90;4.70;;;;;;4986254;28;20835;-60
2023/07/06 11:20:54;;;;;;;6.90;6.60;;;24.00;4.50;;;;;;4992491;28;20426;-59
2023/07/06 11:23:32;;;;;;;7.40;6.90;;;24.20;3.80;;;;;;4992566;28;20425;-59
2023/07/06 11:26:01;;;;;;;11.03;6.63;;;24.50;2.70;;;;;;4992506;28;20819;-58
2023/07/06 11:28:27;;;;;;;7.40;7.00;;;24.60;3.10;;;;;;4992034;28;20421;-58
2023/07/06 11:31:34;;;;;;;7.50;7.17;;;24.60;3.80;;;;;;4992512;28;20771;-58
2023/07/06 11:34:14;;;;;;;7.77;7.17;;;24.40;3.50;;;;;;4992639;28;20417;-57
2023/07/06 11:36:55;;;;;;;7.10;6.80;;;24.20;3.90;;;;;;4992333;28;20435;-57
2023/07/06 11:39:30;;;;;;;7.53;7.23;;;24.10;4.40;;;;;;4992421;28;20456;-58
2023/07/06 11:41:58;;;;;;;7.90;7.40;;;24.10;5.20;;;;;;4992570;28;20997;-57
2023/07/06 11:44:32;;;;;;;9.70;9.30;;;23.90;4.30;;;;;;4993286;28;20409;-57
2023/07/06 11:47:16;;;;;;;7.33;6.93;;;23.90;4.80;;;;;;5003866;28;20428;-58
2023/07/06 11:49:59;;;;;;;7.47;7.17;;;23.80;4.50;;;;;;5011667;28;20444;-58
2023/07/06 11:52:29;;;;;;;7.90;7.40;;;23.80;5.20;;;;;;4989960;28;20521;-58
2023/07/06 11:56:08;;;;;;;7.80;7.40;;;23.70;4.90;;;;;;4988768;28;20414;-58
2023/07/06 11:58:18;;;;;;;7.80;7.30;;;23.70;4.60;;;;;;4969132;28;20489;-58
2023/07/06 12:00:48;;;;;;;7.53;7.13;;;23.80;4.10;;;;;;4988701;28;20422;-57
2023/07/06 12:03:15;;;;;;;7.37;7.07;;;23.80;4.70;;;;;;4988970;28;20472;-57
2023/07/06 12:05:50;;;;;;;7.87;7.47;;;23.80;4.30;;;;;;4988755;28;21019;-57
2023/07/06 12:08:27;;;;;;;7.53;7.23;;;23.80;4.60;;;;;;4988580;28;20414;-57
2023/07/06 12:11:01;;;;;;;6.83;6.53;;;23.80;4.60;;;;;;4988223;28;20417;-57
2023/07/06 12:13:37;;;;;;;6.77;6.47;;;23.80;4.50;;;;;;4988940;28;20777;-57
2023/07/06 12:16:13;;;;;;;7.50;7.10;;;23.90;4.60;;;;;;4988746;28;20823;-57
2023/07/06 12:18:45;;;;;;;8.07;7.63;;;23.80;4.00;;;;;;4988514;28;20470;-57
2023/07/06 12:21:39;;;;;;;8.40;7.70;;;24.10;3.80;;;;;;4995835;28;20433;-57
2023/07/06 12:24:10;;;;;;;7.63;7.13;;;24.20;4.00;;;;;;5006361;28;20413;-57
2023/07/06 12:26:43;;;;;;;7.53;7.13;;;24.30;3.00;;;;;;4991038;28;20417;-57
2023/07/06 12:29:09;;;;;;;8.20;7.60;;;24.50;2.60;;;;;;4991657;28;20425;-57
2023/07/06 12:31:34;;;;;;;7.77;7.37;;;24.50;2.60;;;;;;4991419;28;20432;-58
2023/07/06 12:34:00;;;;;;;9.13;8.20;;;24.60;2.80;;;;;;4991755;28;20217;-57
2023/07/06 12:36:33;;;;;;;8.60;8.00;;;24.70;2.80;;;;;;4991595;28;20277;-58
2023/07/06 12:39:01;;;;;;;7.53;7.13;;;24.70;2.70;;;;;;4991227;28;20217;-59
2023/07/06 12:41:33;;;;;;;8.40;7.77;;;24.60;3.20;;;;;;4983731;28;20441;-58
2023/07/06 12:43:59;;;;;;;7.63;7.23;;;24.60;3.40;;;;;;4987961;28;20418;-58
2023/07/06 12:46:30;;;;;;;7.90;7.50;;;24.50;3.20;;;;;;5003833;28;20842;-59
2023/07/06 12:49:02;;;;;;;8.50;7.90;;;24.40;3.30;;;;;;4990006;28;20503;-59
2023/07/06 12:51:29;;;;;;;8.07;7.67;;;24.30;3.70;;;;;;4989651;28;20544;-58
2023/07/06 12:53:57;;;;;;;7.50;7.00;;;24.20;3.80;;;;;;4989339;28;20428;-59
2023/07/06 12:56:29;;;;;;;8.10;7.40;;;24.10;3.80;;;;;;4989313;28;20452;-59
2023/07/06 12:59:04;;;;;;;8.23;7.47;;;24.10;4.00;;;;;;4989093;28;20488;-58
2023/07/06 13:01:45;;;;;;;7.80;7.40;;;24.00;3.70;;;;;;4989504;28;20423;-59
2023/07/06 13:04:13;;;;;;;9.20;7.83;;;24.00;4.00;;;;;;4989801;28;20473;-59
2023/07/06 13:06:54;;;;;;;9.07;8.27;;;23.90;3.70;;;;;;4990814;28;20948;-59
2023/07/06 13:09:29;;;;;;;7.87;7.40;;;23.90;3.80;;;;;;4990965;28;20416;-59